Time;durP1;ratioP1;P1;durP2;ratioP2;P2;SDS_P1;SDS_P2;PMS_P1;PMS_P2;Temp;Humidity;BMP_temperature;BMP_pressure;BME280_temperature;BME280_humidity;BME280_pressure;Samples;Min_cycle;Max_cycle;Signal;HPM_P1;HPM_P2
2021/03/20 00:00:45;;;;;;;1999.90;999.90;;;19.60;74.40;;;;;;5073124;28;20164;-58
2021/03/20 00:03:12;;;;;;;1999.90;999.90;;;19.60;74.70;;;;;;5073196;28;20175;-56
2021/03/20 00:05:39;;;;;;;1999.90;999.90;;;19.50;75.00;;;;;;5073027;28;20168;-57
2021/03/20 00:08:09;;;;;;;1999.90;999.90;;;19.40;75.30;;;;;;5073146;28;20164;-54
2021/03/20 00:10:36;;;;;;;1999.90;999.90;;;19.40;75.30;;;;;;5073292;28;20554;-49
2021/03/20 00:13:04;;;;;;;1999.90;999.90;;;19.40;75.50;;;;;;5072991;28;20179;-57
2021/03/20 00:15:32;;;;;;;1999.90;999.90;;;19.50;74.80;;;;;;5073150;28;20226;-58
2021/03/20 00:17:59;;;;;;;1999.90;999.90;;;19.40;75.10;;;;;;5073138;28;20202;-51
2021/03/20 00:20:31;;;;;;;1999.90;999.90;;;19.40;75.70;;;;;;5072956;28;20168;-58
2021/03/20 00:22:58;;;;;;;1999.90;999.90;;;19.30;76.00;;;;;;5073039;28;20156;-53
2021/03/20 00:25:26;;;;;;;1999.90;999.90;;;19.30;76.20;;;;;;5072873;28;20653;-54
2021/03/20 00:27:53;;;;;;;1999.90;999.90;;;19.20;76.40;;;;;;5072654;28;20179;-51
2021/03/20 00:30:21;;;;;;;1999.90;999.90;;;19.20;76.60;;;;;;5072794;28;20530;-44
2021/03/20 00:32:48;;;;;;;1999.90;999.90;;;19.10;77.00;;;;;;5072817;28;20168;-58
2021/03/20 00:35:17;;;;;;;1999.90;999.90;;;19.10;77.40;;;;;;5073077;28;20515;-57
2021/03/20 00:37:44;;;;;;;1999.90;999.90;;;19.10;77.30;;;;;;5072732;28;20243;-58
2021/03/20 00:40:15;;;;;;;1999.90;999.90;;;19.00;77.80;;;;;;5072740;28;20698;-58
2021/03/20 00:42:43;;;;;;;1999.90;999.90;;;18.90;78.20;;;;;;5072793;28;20165;-45
2021/03/20 00:45:13;;;;;;;1999.90;999.90;;;18.90;79.10;;;;;;5072729;28;20164;-58
2021/03/20 00:47:39;;;;;;;1999.90;999.90;;;18.70;80.30;;;;;;5072640;28;20168;-58
2021/03/20 00:50:08;;;;;;;1999.90;999.90;;;18.60;80.80;;;;;;5072633;28;20654;-52
2021/03/20 00:52:35;;;;;;;1999.90;999.90;;;18.50;81.50;;;;;;5072605;28;20192;-57
2021/03/20 00:55:03;;;;;;;1999.90;999.90;;;18.50;82.80;;;;;;5072599;28;20216;-58
2021/03/20 00:57:30;;;;;;;1999.90;999.90;;;18.50;84.80;;;;;;5072665;28;20551;-56
2021/03/20 00:59:57;;;;;;;1999.90;999.90;;;18.30;86.00;;;;;;5072573;28;20165;-54
2021/03/20 01:02:23;;;;;;;1999.90;999.90;;;18.20;86.80;;;;;;5072490;28;20176;-47
2021/03/20 01:04:50;;;;;;;1999.90;999.90;;;18.10;87.50;;;;;;5072529;28;20197;-56
2021/03/20 01:07:17;;;;;;;1999.90;999.90;;;17.90;87.90;;;;;;5072516;28;20210;-58
2021/03/20 01:09:44;;;;;;;1999.90;999.90;;;17.90;88.50;;;;;;5072447;28;20207;-53
2021/03/20 01:12:11;;;;;;;1999.90;999.90;;;17.80;88.60;;;;;;5072412;28;20247;-58
2021/03/20 01:14:38;;;;;;;1999.90;999.90;;;17.70;89.30;;;;;;5072402;28;20180;-57
2021/03/20 01:17:05;;;;;;;1999.90;999.90;;;17.50;90.00;;;;;;5072411;28;20658;-57
2021/03/20 01:19:31;;;;;;;1999.90;999.90;;;17.40;90.30;;;;;;5072647;28;20623;-58
2021/03/20 01:21:58;;;;;;;1999.90;999.90;;;17.30;90.60;;;;;;5072281;28;20183;-58
2021/03/20 01:24:25;;;;;;;1999.90;999.90;;;17.30;90.70;;;;;;5072357;28;20177;-57
2021/03/20 01:26:52;;;;;;;1999.90;999.90;;;17.40;90.70;;;;;;5072322;28;20165;-58
2021/03/20 01:29:19;;;;;;;1999.90;999.90;;;17.40;90.80;;;;;;5072217;28;20168;-58
2021/03/20 01:31:46;;;;;;;1999.90;999.90;;;17.40;90.90;;;;;;5072270;28;20251;-57
2021/03/20 01:34:12;;;;;;;1999.90;999.90;;;17.40;90.90;;;;;;5072155;28;20180;-58
2021/03/20 01:36:39;;;;;;;1999.90;999.90;;;17.30;91.20;;;;;;5072158;28;20200;-52
2021/03/20 01:39:06;;;;;;;1999.90;999.90;;;17.30;91.30;;;;;;5072299;28;20283;-48
2021/03/20 01:41:33;;;;;;;1999.90;999.90;;;17.20;91.30;;;;;;5073400;28;20172;-58
2021/03/20 01:44:00;;;;;;;1999.90;999.90;;;17.30;91.40;;;;;;5075709;28;20161;-49
2021/03/20 01:46:32;;;;;;;1999.90;999.90;;;17.30;91.50;;;;;;5075621;28;20169;-57
2021/03/20 01:49:01;;;;;;;1999.90;999.90;;;17.30;91.30;;;;;;5074376;28;20176;-56
2021/03/20 01:51:29;;;;;;;1999.90;999.90;;;17.30;91.40;;;;;;5075585;28;20255;-54
2021/03/20 01:53:58;;;;;;;1999.90;999.90;;;17.20;91.10;;;;;;5075521;28;20653;-56
2021/03/20 01:56:44;;;;;;;1999.90;999.90;;;17.20;91.10;;;;;;5075272;28;20295;-49
2021/03/20 01:59:13;;;;;;;1999.90;999.90;;;17.30;91.20;;;;;;5075533;28;20157;-56
2021/03/20 02:01:40;;;;;;;1999.90;999.90;;;17.30;91.00;;;;;;5075305;28;20173;-42
2021/03/20 02:04:08;;;;;;;1999.90;999.90;;;17.30;91.00;;;;;;5075478;28;20630;-58
2021/03/20 02:06:35;;;;;;;1999.90;999.90;;;17.30;90.90;;;;;;5075249;28;20167;-57
2021/03/20 02:09:06;;;;;;;1999.90;999.90;;;17.30;90.90;;;;;;5075275;28;20167;-57
2021/03/20 02:11:56;;;;;;;1999.90;999.90;;;17.20;90.80;;;;;;5075312;28;20153;-48
2021/03/20 02:14:34;;;;;;;1999.90;999.90;;;17.20;91.00;;;;;;5075188;28;20642;-57
2021/03/20 02:17:31;;;;;;;1999.90;999.90;;;17.20;91.20;;;;;;5075075;28;20188;-58
2021/03/20 02:20:18;;;;;;;1999.90;999.90;;;17.10;91.60;;;;;;5075100;28;20157;-58
2021/03/20 02:23:11;;;;;;;1999.90;999.90;;;17.20;91.50;;;;;;5075120;28;20642;-55
2021/03/20 02:25:59;;;;;;;1999.90;999.90;;;17.20;91.60;;;;;;5075061;28;20711;-58
2021/03/20 02:28:44;;;;;;;1999.90;999.90;;;17.20;91.60;;;;;;5074968;28;20161;-44
2021/03/20 02:31:32;;;;;;;1999.90;999.90;;;17.20;91.60;;;;;;5075012;28;20251;-58
2021/03/20 02:34:10;;;;;;;1999.90;999.90;;;17.10;91.70;;;;;;5074791;28;20247;-57
2021/03/20 02:36:42;;;;;;;1999.90;999.90;;;17.10;92.10;;;;;;5074841;28;20181;-57
2021/03/20 02:39:41;;;;;;;1999.90;999.90;;;17.00;91.80;;;;;;5074885;28;20167;-58
2021/03/20 02:42:19;;;;;;;1999.90;999.90;;;17.10;91.80;;;;;;5074722;28;20294;-58
2021/03/20 02:45:17;;;;;;;1999.90;999.90;;;17.00;91.60;;;;;;5074706;28;20149;-58
2021/03/20 02:48:22;;;;;;;1999.90;999.90;;;16.90;91.70;;;;;;5058435;28;20192;-52
2021/03/20 02:50:54;;;;;;;1999.90;999.90;;;16.90;92.00;;;;;;5058552;28;20281;-57
2021/03/20 02:53:26;;;;;;;1999.90;999.90;;;16.80;92.20;;;;;;5074331;28;20160;-57
2021/03/20 02:55:57;;;;;;;1999.90;999.90;;;16.80;92.20;;;;;;5074342;28;20251;-43
2021/03/20 02:58:32;;;;;;;1999.90;999.90;;;16.70;92.20;;;;;;5074197;28;20200;-54
2021/03/20 03:01:06;;;;;;;1999.90;999.90;;;16.40;92.40;;;;;;5074275;28;20167;-47
2021/03/20 03:03:37;;;;;;;1999.90;999.90;;;16.30;92.80;;;;;;5074184;28;20159;-59
2021/03/20 03:06:26;;;;;;;1999.90;999.90;;;16.30;92.80;;;;;;5074159;28;20168;-57
2021/03/20 03:08:59;;;;;;;1999.90;999.90;;;16.20;93.30;;;;;;5074008;28;20167;-59
2021/03/20 03:12:04;;;;;;;1999.90;999.90;;;16.10;93.40;;;;;;5074118;28;20575;-58
2021/03/20 03:14:36;;;;;;;1999.90;999.90;;;16.10;93.40;;;;;;5073528;28;20192;-51
2021/03/20 03:17:05;;;;;;;1999.90;999.90;;;16.10;93.40;;;;;;5073857;28;20207;-58
2021/03/20 03:20:06;;;;;;;1999.90;999.90;;;16.00;93.80;;;;;;5073836;28;20591;-49
2021/03/20 03:22:59;;;;;;;1999.90;999.90;;;15.90;93.80;;;;;;5073868;28;20168;-58
2021/03/20 03:25:29;;;;;;;1999.90;999.90;;;15.90;94.20;;;;;;5073737;28;20156;-58
2021/03/20 03:28:00;;;;;;;1999.90;999.90;;;15.80;94.30;;;;;;5073679;28;20633;-58
2021/03/20 03:30:28;;;;;;;1999.90;999.90;;;15.80;94.20;;;;;;5073608;28;20160;-58
2021/03/20 03:33:20;;;;;;;1999.90;999.90;;;15.70;94.50;;;;;;5073531;28;20172;-55
2021/03/20 03:35:52;;;;;;;1999.90;999.90;;;15.60;94.90;;;;;;5073663;28;20161;-50
2021/03/20 03:39:00;;;;;;;1999.90;999.90;;;15.70;94.90;;;;;;5073360;28;20195;-54
2021/03/20 03:41:36;;;;;;;1999.90;999.90;;;15.80;94.40;;;;;;5031494;28;20277;-58
2021/03/20 03:44:04;;;;;;;1999.90;999.90;;;15.80;94.20;;;;;;5067649;28;20184;-58
2021/03/20 03:46:34;;;;;;;1999.90;999.90;;;15.80;94.30;;;;;;5073390;28;20160;-57
2021/03/20 03:49:05;;;;;;;1999.90;999.90;;;15.80;94.60;;;;;;5073350;28;20164;-57
2021/03/20 03:51:33;;;;;;;1999.90;999.90;;;15.70;94.90;;;;;;5073365;28;20195;-58
2021/03/20 03:54:01;;;;;;;1999.90;999.90;;;15.70;94.90;;;;;;5073265;28;20180;-57
2021/03/20 03:56:43;;;;;;;1999.90;999.90;;;15.70;95.00;;;;;;5073028;28;20270;-59
2021/03/20 03:59:35;;;;;;;1999.90;999.90;;;15.70;95.00;;;;;;5073222;28;20206;-58
2021/03/20 04:02:38;;;;;;;1999.90;999.90;;;15.80;94.80;;;;;;5073258;28;20187;-53
2021/03/20 04:05:05;;;;;;;1999.90;999.90;;;15.80;94.80;;;;;;5072974;28;20618;-59
2021/03/20 04:07:56;;;;;;;1999.90;999.90;;;15.80;94.60;;;;;;5073082;28;20565;-57
2021/03/20 04:10:51;;;;;;;1999.90;999.90;;;15.80;94.80;;;;;;5073203;28;20236;-54
2021/03/20 04:13:39;;;;;;;1999.90;999.90;;;15.80;94.60;;;;;;5073215;28;20148;-58
2021/03/20 04:16:12;;;;;;;1999.90;999.90;;;15.90;94.70;;;;;;5073084;28;20176;-58
2021/03/20 04:19:00;;;;;;;1999.90;999.90;;;16.00;94.50;;;;;;5072984;28;20188;-58
2021/03/20 04:21:33;;;;;;;1999.90;999.90;;;15.90;94.40;;;;;;5072954;28;20189;-52
2021/03/20 04:24:18;;;;;;;1999.90;999.90;;;15.80;94.50;;;;;;5072890;28;20191;-41
2021/03/20 04:27:05;;;;;;;1999.90;999.90;;;15.70;94.60;;;;;;5073219;28;20255;-55
2021/03/20 04:29:32;;;;;;;1999.90;999.90;;;15.50;94.80;;;;;;5072868;28;20168;-44
2021/03/20 04:32:20;;;;;;;1999.90;999.90;;;15.30;95.20;;;;;;5072864;28;20219;-50
2021/03/20 04:35:02;;;;;;;1999.90;999.90;;;15.20;95.60;;;;;;5073119;28;20247;-57
2021/03/20 04:37:36;;;;;;;1999.90;999.90;;;15.20;96.00;;;;;;5072876;28;20250;-58
2021/03/20 04:40:08;;;;;;;1999.90;999.90;;;15.20;95.90;;;;;;5072776;28;20168;-58
2021/03/20 04:42:38;;;;;;;1999.90;999.90;;;15.20;95.80;;;;;;5072829;28;20168;-57
2021/03/20 04:45:33;;;;;;;1999.90;999.90;;;15.20;95.80;;;;;;5072665;28;20179;-42
2021/03/20 04:48:07;;;;;;;1999.90;999.90;;;15.10;95.90;;;;;;5072682;28;20175;-59
2021/03/20 04:50:38;;;;;;;1999.90;999.90;;;15.00;96.10;;;;;;5072659;28;20646;-57
2021/03/20 04:53:05;;;;;;;1999.90;999.90;;;14.90;96.10;;;;;;5071420;28;20176;-42
2021/03/20 04:55:33;;;;;;;1999.90;999.90;;;14.90;96.30;;;;;;5072438;28;20220;-58
2021/03/20 04:58:15;;;;;;;1999.90;999.90;;;14.80;96.60;;;;;;5072503;28;20200;-52
2021/03/20 05:00:47;;;;;;;1999.90;999.90;;;14.80;96.70;;;;;;5072599;28;20523;-41
2021/03/20 05:03:39;;;;;;;1999.90;999.90;;;14.80;96.80;;;;;;5072594;28;20195;-59
2021/03/20 05:06:09;;;;;;;1999.90;999.90;;;14.80;97.00;;;;;;5072497;28;20157;-58
2021/03/20 05:08:53;;;;;;;1999.90;999.90;;;14.80;97.00;;;;;;5072446;28;20168;-58
2021/03/20 05:11:37;;;;;;;1999.90;999.90;;;14.90;96.90;;;;;;5072622;28;20164;-58
2021/03/20 05:14:35;;;;;;;1999.90;999.90;;;15.00;96.70;;;;;;5072469;28;20171;-44
2021/03/20 05:17:08;;;;;;;1999.90;999.90;;;15.10;96.80;;;;;;5075797;28;20701;-58
2021/03/20 05:19:35;;;;;;;1999.90;999.90;;;15.20;96.70;;;;;;5076106;28;20501;-41
2021/03/20 05:22:02;;;;;;;1999.90;999.90;;;15.30;96.40;;;;;;5075956;28;20598;-58
2021/03/20 05:24:37;;;;;;;1999.90;999.90;;;15.40;96.30;;;;;;5075956;28;20598;-58
2021/03/20 05:27:09;;;;;;;1999.90;999.90;;;15.50;96.20;;;;;;5075748;28;20172;-53
2021/03/20 05:29:37;;;;;;;1999.90;999.90;;;15.50;96.20;;;;;;5075948;28;20160;-46
2021/03/20 05:32:05;;;;;;;1999.90;999.90;;;15.60;96.10;;;;;;5075808;28;20248;-56
2021/03/20 05:34:42;;;;;;;1999.90;999.90;;;15.70;95.80;;;;;;5075806;28;20200;-59
2021/03/20 05:37:19;;;;;;;1999.90;999.90;;;16.00;95.50;;;;;;5075718;28;20253;-58
2021/03/20 05:39:47;;;;;;;1999.90;999.90;;;16.10;95.20;;;;;;5075850;28;20163;-52
2021/03/20 05:42:21;;;;;;;1999.90;999.90;;;16.20;95.20;;;;;;5075689;28;20234;-53
2021/03/20 05:45:02;;;;;;;1999.90;999.90;;;16.30;95.00;;;;;;5075755;28;20184;-60
2021/03/20 05:47:58;;;;;;;1999.90;999.90;;;16.40;94.80;;;;;;5075649;28;20152;-54
2021/03/20 05:50:40;;;;;;;1999.90;999.90;;;16.50;94.70;;;;;;5075854;28;20204;-49
2021/03/20 05:53:07;;;;;;;1999.90;999.90;;;16.70;94.60;;;;;;5075582;28;20572;-59
2021/03/20 05:55:56;;;;;;;1999.90;999.90;;;16.70;94.60;;;;;;5075228;28;20349;-42
2021/03/20 05:58:36;;;;;;;1999.90;999.90;;;16.80;94.00;;;;;;5075251;28;20292;-57
2021/03/20 06:01:36;;;;;;;1999.90;999.90;;;17.00;93.70;;;;;;5075541;28;20155;-52
2021/03/20 06:04:27;;;;;;;1999.90;999.90;;;17.10;93.30;;;;;;5075529;28;20163;-55
2021/03/20 06:07:12;;;;;;;1999.90;999.90;;;17.40;93.40;;;;;;5075270;28;20631;-58
2021/03/20 06:09:56;;;;;;;1999.90;999.90;;;17.70;93.00;;;;;;5075190;28;20161;-56
2021/03/20 06:12:44;;;;;;;1999.90;999.90;;;17.90;92.40;;;;;;5075161;28;20187;-62
2021/03/20 06:15:13;;;;;;;1999.90;999.90;;;18.10;91.90;;;;;;5075115;28;20188;-50
2021/03/20 06:18:28;;;;;;;1999.90;999.90;;;18.20;91.30;;;;;;5074961;28;20204;-57
2021/03/20 06:21:00;;;;;;;1999.90;999.90;;;18.50;90.70;;;;;;5058858;28;20188;-56
2021/03/20 06:23:38;;;;;;;1999.90;999.90;;;18.60;90.20;;;;;;5075075;28;20168;-47
2021/03/20 06:26:39;;;;;;;1999.90;999.90;;;18.70;90.10;;;;;;5074403;28;20622;-59
2021/03/20 06:29:28;;;;;;;1999.90;999.90;;;18.70;90.80;;;;;;5051654;28;20634;-57
2021/03/20 06:32:22;;;;;;;1999.90;999.90;;;18.70;90.00;;;;;;5074700;28;20223;-48
2021/03/20 06:35:15;;;;;;;1999.90;999.90;;;18.80;90.40;;;;;;5074743;28;20153;-55
2021/03/20 06:37:57;;;;;;;1999.90;999.90;;;18.80;90.50;;;;;;5058722;28;20220;-58
2021/03/20 06:40:29;;;;;;;1999.90;999.90;;;18.90;90.90;;;;;;5074671;28;20188;-57
2021/03/20 06:42:58;;;;;;;1999.90;999.90;;;18.80;90.90;;;;;;5074628;28;20192;-58
2021/03/20 06:45:28;;;;;;;1999.90;999.90;;;18.90;90.60;;;;;;5074502;28;20157;-58
2021/03/20 06:48:05;;;;;;;1999.90;999.90;;;18.90;90.30;;;;;;5074501;28;20579;-58
2021/03/20 06:50:46;;;;;;;1999.90;999.90;;;19.00;90.10;;;;;;5074599;28;20155;-58
2021/03/20 06:53:16;;;;;;;1999.90;999.90;;;18.90;90.40;;;;;;5074342;28;20165;-58
2021/03/20 06:55:46;;;;;;;1999.90;999.90;;;19.00;90.00;;;;;;5074072;28;20742;-58
2021/03/20 06:58:45;;;;;;;1999.90;999.90;;;19.10;90.00;;;;;;5074205;28;20195;-59
2021/03/20 07:01:34;;;;;;;1999.90;999.90;;;19.20;89.80;;;;;;5051634;28;20181;-59
2021/03/20 07:04:18;;;;;;;1999.90;999.90;;;19.30;89.20;;;;;;5074384;28;20157;-59
2021/03/20 07:07:15;;;;;;;1999.90;999.90;;;19.50;88.10;;;;;;5074179;28;20645;-59
2021/03/20 07:09:44;;;;;;;1999.90;999.90;;;19.80;88.20;;;;;;5074290;28;20172;-59
2021/03/20 07:12:17;;;;;;;1999.90;999.90;;;20.10;85.80;;;;;;5074018;28;20194;-58
2021/03/20 07:14:47;;;;;;;1999.90;999.90;;;20.50;83.90;;;;;;5074031;28;20290;-58
2021/03/20 07:17:26;;;;;;;1999.90;999.90;;;20.60;82.20;;;;;;5073893;28;20712;-57
2021/03/20 07:20:14;;;;;;;1999.90;999.90;;;20.60;81.30;;;;;;5073873;28;20655;-58
2021/03/20 07:22:50;;;;;;;1999.90;999.90;;;20.70;81.10;;;;;;5073912;28;20167;-59
2021/03/20 07:25:58;;;;;;;1999.90;999.90;;;20.80;80.80;;;;;;5073767;28;20180;-59
2021/03/20 07:28:30;;;;;;;1999.90;999.90;;;20.90;80.30;;;;;;5071728;28;20191;-54
2021/03/20 07:30:59;;;;;;;1999.90;999.90;;;21.10;80.10;;;;;;5073652;28;20526;-59
2021/03/20 07:33:37;;;;;;;1999.90;999.90;;;21.20;78.70;;;;;;5073610;28;20180;-59
2021/03/20 07:36:33;;;;;;;1999.90;999.90;;;21.30;78.00;;;;;;5073750;28;20165;-59
2021/03/20 07:39:16;;;;;;;1999.90;999.90;;;21.50;77.30;;;;;;5072686;28;20194;-59
2021/03/20 07:41:51;;;;;;;1999.90;999.90;;;21.80;76.50;;;;;;5073564;28;20166;-53
2021/03/20 07:44:18;;;;;;;1999.90;999.90;;;22.00;74.30;;;;;;5073369;28;20188;-59
2021/03/20 07:46:45;;;;;;;1999.90;999.90;;;22.30;73.40;;;;;;5073386;28;20164;-58
2021/03/20 07:49:31;;;;;;;1999.90;999.90;;;22.70;72.60;;;;;;5073218;28;20168;-58
2021/03/20 07:52:21;;;;;;;1999.90;999.90;;;22.70;69.10;;;;;;5073312;28;20160;-60
2021/03/20 07:54:48;;;;;;;1999.90;999.90;;;22.60;68.60;;;;;;5073110;28;20216;-57
2021/03/20 07:57:17;;;;;;;1999.90;999.90;;;23.00;68.10;;;;;;5073239;28;20196;-58
2021/03/20 07:59:50;;;;;;;1999.90;999.90;;;23.20;66.40;;;;;;5073216;28;20647;-59
2021/03/20 08:02:37;;;;;;;1999.90;999.90;;;23.50;65.60;;;;;;5073172;28;20202;-58
2021/03/20 08:05:26;;;;;;;1999.90;999.90;;;23.60;64.40;;;;;;5073277;28;20209;-45
2021/03/20 08:07:54;;;;;;;1999.90;999.90;;;24.20;62.40;;;;;;5073216;28;20160;-59
2021/03/20 08:10:35;;;;;;;1999.90;999.90;;;24.30;61.10;;;;;;5073078;28;20643;-59
2021/03/20 08:13:36;;;;;;;1999.90;999.90;;;24.30;61.20;;;;;;5072978;28;20200;-59
2021/03/20 08:16:05;;;;;;;1999.90;999.90;;;25.60;58.50;;;;;;5073011;28;20198;-58
2021/03/20 08:18:40;;;;;;;1999.90;999.90;;;26.50;56.10;;;;;;5072905;28;20226;-59
2021/03/20 08:21:16;;;;;;;1999.90;999.90;;;27.30;53.10;;;;;;5073023;28;20168;-58
2021/03/20 08:23:51;;;;;;;1999.90;999.90;;;27.60;51.90;;;;;;5072862;28;20275;-57
2021/03/20 08:26:28;;;;;;;1999.90;999.90;;;27.00;52.40;;;;;;5072805;28;20164;-59
2021/03/20 08:29:20;;;;;;;1999.90;999.90;;;27.30;52.40;;;;;;5072867;28;20680;-57
2021/03/20 08:32:19;;;;;;;1999.90;999.90;;;26.80;52.90;;;;;;5053200;28;20207;-57
2021/03/20 08:35:23;;;;;;;1999.90;999.90;;;26.90;53.00;;;;;;5072884;28;20160;-51
2021/03/20 08:38:02;;;;;;;1999.90;999.90;;;26.80;52.60;;;;;;5072732;28;20260;-42
2021/03/20 08:40:52;;;;;;;1999.90;999.90;;;26.30;52.50;;;;;;5072730;28;20167;-46
2021/03/20 08:44:16;;;;;;;1999.90;999.90;;;25.20;55.60;;;;;;5072595;28;20191;-58
2021/03/20 08:46:52;;;;;;;1999.90;999.90;;;24.70;57.40;;;;;;5030551;28;20216;-43
2021/03/20 08:50:08;;;;;;;1999.90;999.90;;;26.20;55.80;;;;;;5031150;28;20170;-59
2021/03/20 08:53:01;;;;;;;1999.90;999.90;;;27.00;51.90;;;;;;5066156;28;20647;-56
2021/03/20 08:55:38;;;;;;;1999.90;999.90;;;27.20;51.00;;;;;;5076401;28;20220;-53
2021/03/20 08:58:40;;;;;;;1999.90;999.90;;;27.30;50.90;;;;;;5076525;28;20224;-52
2021/03/20 09:01:38;;;;;;;1999.90;999.90;;;26.90;50.80;;;;;;5076477;28;20233;-46
2021/03/20 09:04:19;;;;;;;1999.90;999.90;;;26.60;51.00;;;;;;5076251;28;20175;-55
2021/03/20 09:07:09;;;;;;;1999.90;999.90;;;26.40;51.60;;;;;;5076716;28;20167;-55
2021/03/20 09:09:53;;;;;;;1999.90;999.90;;;25.60;52.70;;;;;;5076416;28;20223;-57
2021/03/20 09:12:29;;;;;;;1999.90;999.90;;;25.00;55.10;;;;;;5076345;28;20191;-59
2021/03/20 09:14:56;;;;;;;1999.90;999.90;;;25.50;54.10;;;;;;5076278;28;20149;-60
2021/03/20 09:17:38;;;;;;;1999.90;999.90;;;26.20;52.10;;;;;;5076170;28;20200;-52
2021/03/20 09:20:40;;;;;;;1999.90;999.90;;;26.50;51.80;;;;;;5076135;28;20195;-58
2021/03/20 09:23:39;;;;;;;1999.90;999.90;;;26.80;51.00;;;;;;5076116;28;20179;-44
2021/03/20 09:26:10;;;;;;;1999.90;999.90;;;26.90;50.10;;;;;;5070406;28;20638;-58
2021/03/20 09:28:51;;;;;;;1999.90;999.90;;;27.10;50.50;;;;;;5075928;28;20190;-52
2021/03/20 09:31:31;;;;;;;1999.90;999.90;;;27.10;50.70;;;;;;5075794;28;20255;-60
2021/03/20 09:34:00;;;;;;;1999.90;999.90;;;27.40;49.60;;;;;;5076026;28;20175;-60
2021/03/20 09:36:43;;;;;;;1999.90;999.90;;;27.50;48.00;;;;;;5075764;28;20168;-59
2021/03/20 09:39:55;;;;;;;1999.90;999.90;;;27.60;48.50;;;;;;5075698;28;20176;-58
2021/03/20 09:42:28;;;;;;;1999.90;999.90;;;27.80;47.30;;;;;;5052481;28;20582;-58
2021/03/20 09:45:19;;;;;;;1999.90;999.90;;;27.90;46.70;;;;;;5075619;28;20230;-56
2021/03/20 09:47:55;;;;;;;1999.90;999.90;;;28.10;45.80;;;;;;5070164;28;20200;-57
2021/03/20 09:50:22;;;;;;;1999.90;999.90;;;27.70;46.30;;;;;;5075578;28;20159;-58
2021/03/20 09:52:56;;;;;;;1999.90;999.90;;;27.70;46.50;;;;;;5075565;28;20156;-56
2021/03/20 09:55:44;;;;;;;1999.90;999.90;;;27.70;47.00;;;;;;5075436;28;20220;-57
2021/03/20 09:58:20;;;;;;;1999.90;999.90;;;28.10;46.00;;;;;;5075259;28;20212;-58
2021/03/20 10:00:51;;;;;;;1999.90;999.90;;;28.10;45.70;;;;;;5075026;28;20172;-57
2021/03/20 10:03:45;;;;;;;1999.90;999.90;;;27.80;46.70;;;;;;5075353;28;20164;-42
2021/03/20 10:06:34;;;;;;;1999.90;999.90;;;28.00;46.40;;;;;;5075305;28;20181;-58
2021/03/20 10:09:07;;;;;;;1999.90;999.90;;;27.90;46.20;;;;;;5075268;28;20145;-60
2021/03/20 10:11:37;;;;;;;1999.90;999.90;;;28.00;46.30;;;;;;5075190;28;20156;-59
2021/03/20 10:14:26;;;;;;;1999.90;999.90;;;27.60;47.00;;;;;;5075203;28;20157;-54
2021/03/20 10:17:19;;;;;;;1999.90;999.90;;;27.70;47.10;;;;;;5075167;28;20529;-59
2021/03/20 10:19:55;;;;;;;1999.90;999.90;;;27.30;47.70;;;;;;5074997;28;20157;-58
2021/03/20 10:22:33;;;;;;;1999.90;999.90;;;26.90;47.10;;;;;;5074715;28;20160;-44
2021/03/20 10:25:00;;;;;;;1999.90;999.90;;;27.00;47.90;;;;;;5074556;28;20164;-59
2021/03/20 10:27:35;;;;;;;1999.90;999.90;;;27.10;48.00;;;;;;5074836;28;20255;-48
2021/03/20 10:30:22;;;;;;;1999.90;999.90;;;27.40;47.30;;;;;;5074737;28;20166;-59
2021/03/20 10:33:05;;;;;;;1999.90;999.90;;;27.10;48.00;;;;;;5074849;28;20198;-43
2021/03/20 10:35:36;;;;;;;1999.90;999.90;;;27.30;47.10;;;;;;5074723;28;20164;-59
2021/03/20 10:38:35;;;;;;;1999.90;999.90;;;27.50;47.30;;;;;;5074449;28;20202;-46
2021/03/20 10:41:13;;;;;;;1999.90;999.90;;;27.30;47.40;;;;;;5074532;28;20586;-59
2021/03/20 10:43:51;;;;;;;1999.90;999.90;;;27.00;48.00;;;;;;5074422;28;20199;-58
2021/03/20 10:46:29;;;;;;;1999.90;999.90;;;27.20;48.00;;;;;;5074427;28;20160;-59
2021/03/20 10:48:59;;;;;;;1999.90;999.90;;;27.40;46.90;;;;;;5074304;28;20160;-56
2021/03/20 10:51:35;;;;;;;1999.90;999.90;;;27.40;46.80;;;;;;5074155;28;20172;-53
2021/03/20 10:54:11;;;;;;;1999.90;999.90;;;27.50;46.50;;;;;;5074410;28;20236;-58
2021/03/20 10:56:41;;;;;;;1999.90;999.90;;;27.40;47.10;;;;;;5074595;28;20529;-54
2021/03/20 10:59:37;;;;;;;1999.90;999.90;;;27.50;46.60;;;;;;5074218;28;20165;-58
2021/03/20 11:02:25;;;;;;;1999.90;999.90;;;27.50;46.50;;;;;;5065529;28;20267;-54
2021/03/20 11:04:54;;;;;;;1999.90;999.90;;;27.50;46.30;;;;;;5074481;28;20176;-59
2021/03/20 11:07:25;;;;;;;1999.90;999.90;;;27.50;46.20;;;;;;5074264;28;20508;-55
2021/03/20 11:10:09;;;;;;;1999.90;999.90;;;27.30;46.30;;;;;;5074150;28;20164;-55
2021/03/20 11:12:36;;;;;;;1999.90;999.90;;;27.00;47.00;;;;;;5073944;28;20159;-59
2021/03/20 11:15:03;;;;;;;1999.90;999.90;;;27.00;47.20;;;;;;5074018;28;20203;-54
2021/03/20 11:17:32;;;;;;;1999.90;999.90;;;27.00;46.80;;;;;;5073937;28;20188;-56
2021/03/20 11:20:09;;;;;;;1999.90;999.90;;;27.20;46.70;;;;;;5073864;28;20714;-52
2021/03/20 11:22:41;;;;;;;1999.90;999.90;;;27.30;46.00;;;;;;5073881;28;20169;-55
2021/03/20 11:25:37;;;;;;;1999.90;999.90;;;27.40;46.20;;;;;;5073838;28;20149;-58
2021/03/20 11:28:27;;;;;;;1999.90;999.90;;;27.40;46.20;;;;;;5073374;28;20684;-57
2021/03/20 11:30:56;;;;;;;1999.90;999.90;;;27.30;47.10;;;;;;5072575;28;20176;-59
2021/03/20 11:33:28;;;;;;;1999.90;999.90;;;27.40;46.50;;;;;;5073768;28;20169;-48
2021/03/20 11:36:01;;;;;;;1999.90;999.90;;;27.70;45.10;;;;;;5073604;28;20164;-55
2021/03/20 11:38:29;;;;;;;1999.90;999.90;;;27.40;45.70;;;;;;5073426;28;20218;-58
2021/03/20 11:40:55;;;;;;;1999.90;999.90;;;27.40;45.80;;;;;;5073563;28;20171;-43
2021/03/20 11:43:58;;;;;;;1999.90;999.90;;;27.50;45.50;;;;;;5073584;28;20169;-58
2021/03/20 11:46:38;;;;;;;1999.90;999.90;;;27.70;45.40;;;;;;5066812;28;20571;-58
2021/03/20 11:49:17;;;;;;;1999.90;999.90;;;27.70;45.10;;;;;;5073336;28;20279;-52
2021/03/20 11:51:47;;;;;;;1999.90;999.90;;;27.70;45.50;;;;;;5073361;28;20153;-58
2021/03/20 11:54:38;;;;;;;1999.90;999.90;;;27.90;44.70;;;;;;5073031;28;20207;-58
2021/03/20 11:57:35;;;;;;;1999.90;999.90;;;27.80;44.50;;;;;;5073125;28;20228;-52
2021/03/20 12:00:23;;;;;;;1999.90;999.90;;;27.60;45.00;;;;;;5073205;28;20236;-57
2021/03/20 12:02:51;;;;;;;1999.90;999.90;;;27.80;44.80;;;;;;5073179;28;20179;-54
2021/03/20 12:05:23;;;;;;;1999.90;999.90;;;27.70;44.60;;;;;;5073089;28;20210;-58
2021/03/20 12:07:50;;;;;;;1999.90;999.90;;;27.60;45.10;;;;;;5073119;28;20160;-59
2021/03/20 12:10:25;;;;;;;1999.90;999.90;;;27.60;45.40;;;;;;5073302;28;20291;-46
2021/03/20 12:12:57;;;;;;;1999.90;999.90;;;27.70;45.00;;;;;;5073102;28;20163;-58
2021/03/20 12:15:35;;;;;;;1999.90;999.90;;;27.70;45.10;;;;;;5073062;28;20172;-57
2021/03/20 12:18:19;;;;;;;1999.90;999.90;;;27.70;45.00;;;;;;5073065;28;20198;-57
2021/03/20 12:20:46;;;;;;;1999.90;999.90;;;27.40;45.80;;;;;;5072916;28;20149;-59
2021/03/20 12:23:17;;;;;;;1999.90;999.90;;;27.60;45.90;;;;;;5072851;28;20186;-57
2021/03/20 12:25:48;;;;;;;1999.90;999.90;;;27.80;45.50;;;;;;5072445;28;20203;-59
2021/03/20 12:28:34;;;;;;;1999.90;999.90;;;27.80;44.80;;;;;;5072840;28;20156;-58
2021/03/20 12:31:08;;;;;;;1999.90;999.90;;;27.80;44.90;;;;;;5072820;28;20163;-52
2021/03/20 12:34:21;;;;;;;1999.90;999.90;;;27.70;44.70;;;;;;5072966;28;20168;-52
2021/03/20 12:36:50;;;;;;;1999.90;999.90;;;27.60;45.00;;;;;;5072592;28;20650;-57
2021/03/20 12:39:23;;;;;;;1999.90;999.90;;;27.70;44.60;;;;;;5072736;28;20180;-56
2021/03/20 12:41:53;;;;;;;1999.90;999.90;;;27.60;44.80;;;;;;5072694;28;20255;-54
2021/03/20 12:44:24;;;;;;;1999.90;999.90;;;27.20;45.20;;;;;;5072799;28;20172;-57
2021/03/20 12:47:03;;;;;;;1999.90;999.90;;;27.10;45.90;;;;;;5072624;28;20157;-58
2021/03/20 12:49:32;;;;;;;1999.90;999.90;;;27.30;45.50;;;;;;5072731;28;20187;-59
2021/03/20 12:52:01;;;;;;;1999.90;999.90;;;27.10;45.90;;;;;;5072669;28;20164;-57